Time;durP1;ratioP1;P1;durP2;ratioP2;P2;SDS_P1;SDS_P2;PMS_P1;PMS_P2;Temp;Humidity;BMP_temperature;BMP_pressure;BME280_temperature;BME280_humidity;BME280_pressure;Samples;Min_cycle;Max_cycle;Signal;HPM_P1;HPM_P2
2024/04/05 00:00:32;;;;;;;11.32;5.68;;;14.60;99.90;;;;;;6181192;23;20063;-71
2024/04/05 00:02:58;;;;;;;9.80;5.78;;;14.60;99.90;;;;;;6254981;22;20011;-71
2024/04/05 00:05:24;;;;;;;12.55;6.57;;;14.60;99.90;;;;;;6307756;22;19996;-71
2024/04/05 00:07:50;;;;;;;15.18;6.38;;;14.60;99.90;;;;;;6307941;22;20003;-71
2024/04/05 00:10:15;;;;;;;17.10;6.82;;;14.60;99.90;;;;;;6307853;22;20022;-71
2024/04/05 00:12:41;;;;;;;15.07;7.38;;;14.50;99.90;;;;;;6307461;22;19999;-71
2024/04/05 00:15:07;;;;;;;15.50;7.05;;;14.60;99.90;;;;;;6307213;22;20082;-71
2024/04/05 00:17:33;;;;;;;14.85;6.60;;;14.60;99.90;;;;;;6305470;22;20011;-70
2024/04/05 00:19:59;;;;;;;13.75;6.47;;;14.60;99.90;;;;;;6307490;22;20002;-70
2024/04/05 00:22:24;;;;;;;12.52;6.75;;;14.50;99.90;;;;;;6306712;22;20003;-71
2024/04/05 00:24:52;;;;;;;10.82;5.97;;;14.50;99.90;;;;;;6307406;22;20030;-70
2024/04/05 00:27:18;;;;;;;10.18;6.40;;;14.50;99.90;;;;;;6306252;22;20425;-71
2024/04/05 00:29:44;;;;;;;11.77;6.28;;;14.50;99.90;;;;;;6306824;22;19995;-71
2024/04/05 00:32:10;;;;;;;11.88;5.82;;;14.50;99.90;;;;;;6305575;22;20003;-71
2024/04/05 00:34:35;;;;;;;10.90;5.55;;;14.40;99.90;;;;;;6307091;22;20033;-72
2024/04/05 00:37:01;;;;;;;9.02;5.38;;;14.40;99.90;;;;;;6306610;22;20011;-71
2024/04/05 00:39:27;;;;;;;14.90;5.85;;;14.40;99.90;;;;;;6306362;22;19995;-71
2024/04/05 00:41:53;;;;;;;10.77;5.80;;;14.40;99.90;;;;;;6304329;22;20022;-71
2024/04/05 00:44:18;;;;;;;12.10;5.50;;;14.30;99.90;;;;;;6304184;22;19999;-71
2024/04/05 00:46:44;;;;;;;15.15;6.38;;;14.30;99.90;;;;;;6304195;22;19999;-71
2024/04/05 00:49:10;;;;;;;10.18;5.50;;;14.30;99.90;;;;;;6278074;22;20018;-70
2024/04/05 00:51:37;;;;;;;12.27;5.80;;;14.30;99.90;;;;;;6302657;22;20319;-71
2024/04/05 00:54:04;;;;;;;11.32;5.53;;;14.20;99.90;;;;;;6306193;22;20007;-70
2024/04/05 00:56:32;;;;;;;8.75;4.75;;;14.20;99.90;;;;;;6305312;22;20023;-70
2024/04/05 00:58:58;;;;;;;12.05;5.95;;;14.20;99.90;;;;;;6305273;22;20011;-71
2024/04/05 01:01:25;;;;;;;8.20;5.30;;;14.20;99.90;;;;;;6277257;22;20015;-70
2024/04/05 01:03:51;;;;;;;9.05;5.38;;;14.10;99.90;;;;;;6304761;22;20007;-70
2024/04/05 01:06:17;;;;;;;14.82;5.68;;;14.10;99.90;;;;;;6306350;22;20007;-70
2024/04/05 01:27:35;;;;;;;10.68;5.88;;;14.20;99.90;;;;;;5895181;24;20044;-71
2024/04/05 01:33:23;;;;;;;10.68;5.60;;;14.20;99.90;;;;;;5896472;24;20119;-71
2024/04/05 01:35:49;;;;;;;12.02;5.93;;;14.20;99.90;;;;;;5895852;24;20350;-70
2024/04/05 01:38:15;;;;;;;14.05;5.88;;;14.20;99.90;;;;;;6013415;23;20023;-71
2024/04/05 01:40:40;;;;;;;12.00;5.65;;;14.20;99.90;;;;;;6298542;22;20019;-71
2024/04/05 01:43:06;;;;;;;12.02;5.97;;;14.20;99.90;;;;;;6305967;22;20003;-70
2024/04/05 01:45:32;;;;;;;10.50;5.72;;;14.20;99.90;;;;;;6278905;22;20003;-70
2024/04/05 01:47:58;;;;;;;10.73;5.72;;;14.20;99.90;;;;;;6305404;22;20034;-72
2024/04/05 01:50:24;;;;;;;11.95;4.85;;;14.10;99.90;;;;;;6305990;22;20002;-70
2024/04/05 01:52:49;;;;;;;10.00;5.63;;;14.10;99.90;;;;;;6305603;22;19999;-71
2024/04/05 01:55:15;;;;;;;11.57;5.82;;;14.10;99.90;;;;;;6306299;22;20023;-71
2024/04/05 01:57:41;;;;;;;15.07;5.07;;;14.10;99.90;;;;;;6278315;22;20023;-72
2024/04/05 02:00:08;;;;;;;8.77;5.30;;;14.20;99.90;;;;;;6278052;22;20436;-71
2024/04/05 02:02:34;;;;;;;8.40;5.35;;;14.20;99.90;;;;;;6305932;22;20368;-71
2024/04/05 02:05:00;;;;;;;14.07;5.40;;;14.10;99.90;;;;;;6306113;22;20060;-71
2024/04/05 02:07:26;;;;;;;10.32;4.85;;;14.20;99.90;;;;;;6305498;22;20007;-71
2024/04/05 02:09:53;;;;;;;9.77;5.22;;;14.20;99.90;;;;;;6306241;22;20003;-71
2024/04/05 02:12:20;;;;;;;12.30;5.78;;;14.20;99.90;;;;;;6305347;22;20006;-70
2024/04/05 02:14:45;;;;;;;7.50;4.80;;;14.20;99.90;;;;;;6306246;22;19999;-71
2024/04/05 02:17:11;;;;;;;11.68;5.07;;;14.20;99.90;;;;;;6305949;22;20065;-71
2024/04/05 02:19:38;;;;;;;10.30;5.15;;;14.20;99.90;;;;;;6305097;22;20086;-70
2024/04/05 02:22:05;;;;;;;9.18;5.00;;;14.20;99.90;;;;;;6304934;22;19999;-70
2024/04/05 02:24:31;;;;;;;14.05;4.57;;;14.20;99.90;;;;;;6304849;22;20023;-70
2024/04/05 02:26:57;;;;;;;7.50;4.00;;;14.20;99.90;;;;;;6305089;22;20011;-70
2024/04/05 02:29:23;;;;;;;13.65;5.38;;;14.20;99.90;;;;;;6305639;22;20000;-70
2024/04/05 02:31:49;;;;;;;10.57;5.30;;;14.20;99.90;;;;;;6277842;22;20003;-71
2024/04/05 02:34:15;;;;;;;7.55;4.35;;;14.20;99.90;;;;;;6304071;22;20029;-70
2024/04/05 02:36:41;;;;;;;9.45;4.63;;;14.20;99.90;;;;;;6306589;22;20396;-71
2024/04/05 02:39:07;;;;;;;9.10;4.75;;;14.20;99.90;;;;;;6305658;22;20006;-70
2024/04/05 02:41:36;;;;;;;7.25;4.15;;;14.20;99.90;;;;;;6306385;22;20368;-70
2024/04/05 02:44:02;;;;;;;9.40;4.95;;;14.20;99.90;;;;;;6306064;22;20014;-71
2024/04/05 03:11:02;;;;;;;7.97;4.53;;;14.10;99.90;;;;;;5953543;24;20061;-70
2024/04/05 03:13:29;;;;;;;9.02;4.47;;;14.00;99.90;;;;;;6004162;23;20355;-70
2024/04/05 03:15:55;;;;;;;12.30;4.70;;;14.00;99.90;;;;;;6083721;22;20014;-70
2024/04/05 03:18:21;;;;;;;12.20;4.38;;;14.00;99.90;;;;;;6278328;22;20065;-70
2024/04/05 03:20:46;;;;;;;14.25;4.93;;;14.00;99.90;;;;;;6276138;22;20361;-70
2024/04/05 03:23:12;;;;;;;9.38;3.83;;;13.90;99.90;;;;;;6277071;22;19999;-70
2024/04/05 03:25:38;;;;;;;12.15;4.30;;;13.90;99.90;;;;;;6276842;22;20030;-70
2024/04/05 03:28:04;;;;;;;8.00;4.13;;;13.90;99.90;;;;;;6277187;22;19999;-70
2024/04/05 03:30:30;;;;;;;8.48;3.95;;;13.90;99.90;;;;;;6277338;22;20002;-71
2024/04/05 03:32:56;;;;;;;7.85;4.18;;;13.90;99.90;;;;;;6276166;22;19996;-70
2024/04/05 03:35:22;;;;;;;8.55;4.00;;;13.80;99.90;;;;;;6276364;22;19996;-71
2024/04/05 03:37:52;;;;;;;9.35;3.95;;;13.80;99.90;;;;;;6276297;22;20065;-70
2024/04/05 03:40:18;;;;;;;9.77;3.90;;;13.80;99.90;;;;;;6275985;22;20091;-70
2024/04/05 03:42:44;;;;;;;8.07;3.92;;;13.70;99.90;;;;;;6276516;22;20027;-70
2024/04/05 03:45:09;;;;;;;8.98;4.25;;;13.70;99.90;;;;;;6275844;22;20057;-70
2024/04/05 03:47:35;;;;;;;11.85;3.80;;;13.70;99.90;;;;;;6275683;22;19999;-70
2024/04/05 03:50:01;;;;;;;8.75;3.70;;;13.60;99.90;;;;;;6275908;22;20017;-72
2024/04/05 03:52:27;;;;;;;7.63;3.85;;;13.60;99.90;;;;;;6275574;22;20050;-70
2024/04/05 03:54:53;;;;;;;13.20;4.32;;;13.50;99.90;;;;;;6276195;22;20082;-70
2024/04/05 03:57:21;;;;;;;8.23;4.25;;;13.50;99.90;;;;;;6285667;22;20034;-70
2024/04/05 03:59:47;;;;;;;11.60;3.65;;;13.40;99.90;;;;;;6304602;22;20380;-70
2024/04/05 04:02:13;;;;;;;6.90;3.47;;;13.40;99.90;;;;;;6304362;22;20383;-70
2024/04/05 04:04:39;;;;;;;10.40;4.13;;;13.40;99.90;;;;;;6306050;22;20011;-70
2024/04/05 04:07:05;;;;;;;12.68;4.20;;;13.40;99.90;;;;;;6305722;22;20007;-71
2024/04/05 04:09:31;;;;;;;6.32;4.00;;;13.40;99.90;;;;;;6306626;22;20306;-70
2024/04/05 04:11:57;;;;;;;9.05;3.95;;;13.40;99.90;;;;;;6305256;22;20008;-70
2024/04/05 04:14:23;;;;;;;8.20;4.50;;;13.30;99.90;;;;;;6307549;22;20009;-70
2024/04/05 04:16:52;;;;;;;9.35;4.07;;;13.30;99.90;;;;;;6307954;22;20011;-70
2024/04/05 04:19:18;;;;;;;7.38;4.30;;;13.30;99.90;;;;;;6307453;22;20368;-70
2024/04/05 04:21:46;;;;;;;10.38;4.40;;;13.30;99.90;;;;;;6307286;22;20299;-71
2024/04/05 04:24:30;;;;;;;8.70;4.95;;;13.30;99.90;;;;;;6306639;22;20337;-71
2024/04/05 04:26:59;;;;;;;9.38;4.63;;;13.30;99.90;;;;;;6306559;22;20003;-70
2024/04/05 04:29:26;;;;;;;10.20;3.95;;;13.20;99.90;;;;;;6307005;22;20003;-70
2024/04/05 04:31:55;;;;;;;11.45;4.38;;;13.20;99.90;;;;;;6306717;22;20281;-70
2024/04/05 04:44:29;;;;;;;11.25;3.92;;;13.20;99.90;;;;;;6043058;23;20449;-70
2024/04/05 04:47:29;;;;;;;7.78;4.38;;;13.10;99.90;;;;;;6180256;23;20013;-73
2024/04/05 04:49:58;;;;;;;11.30;3.95;;;13.20;99.90;;;;;;6092851;23;20014;-71
2024/04/05 04:52:24;;;;;;;8.02;3.75;;;13.10;99.90;;;;;;6174994;22;20359;-70
2024/04/05 04:54:52;;;;;;;10.75;4.47;;;13.10;99.90;;;;;;6306854;22;20003;-70
2024/04/05 04:57:18;;;;;;;7.35;4.00;;;13.10;99.90;;;;;;6305093;22;20145;-70
2024/04/05 04:59:44;;;;;;;9.15;4.20;;;13.10;99.90;;;;;;6278848;22;20042;-70
2024/04/05 05:02:09;;;;;;;15.45;4.78;;;13.10;99.90;;;;;;6307442;22;20007;-70
2024/04/05 05:04:35;;;;;;;7.03;4.18;;;13.10;99.90;;;;;;6307484;22;20035;-71
2024/04/05 05:07:02;;;;;;;14.55;4.25;;;13.20;99.90;;;;;;6307152;22;19999;-71
2024/04/05 05:09:28;;;;;;;6.95;3.88;;;13.20;99.90;;;;;;6307119;22;20325;-70
2024/04/05 05:11:53;;;;;;;9.77;4.22;;;13.10;99.90;;;;;;6307133;22;19999;-70
2024/04/05 05:14:19;;;;;;;12.80;4.57;;;13.20;99.90;;;;;;6307261;22;20000;-70
2024/04/05 05:16:45;;;;;;;11.65;4.38;;;13.20;99.90;;;;;;6306763;22;20015;-70
2024/04/05 05:19:11;;;;;;;11.32;4.53;;;13.20;99.90;;;;;;6306720;22;20003;-71
2024/04/05 05:21:38;;;;;;;11.77;4.40;;;13.20;99.90;;;;;;6307298;22;20082;-70
2024/04/05 05:24:04;;;;;;;14.18;4.10;;;13.10;99.90;;;;;;6306937;22;20007;-70
2024/04/05 05:26:30;;;;;;;8.52;4.30;;;13.20;99.90;;;;;;6307046;22;20010;-71
2024/04/05 05:28:56;;;;;;;7.57;3.80;;;13.20;99.90;;;;;;6307381;22;19999;-71
2024/04/05 05:31:22;;;;;;;5.63;3.13;;;13.20;99.90;;;;;;6280076;22;20108;-70
2024/04/05 05:33:48;;;;;;;10.73;4.70;;;13.20;99.90;;;;;;6307213;22;20006;-71
2024/04/05 05:36:14;;;;;;;14.02;4.93;;;13.30;99.90;;;;;;6307131;22;20034;-70
2024/04/05 05:38:40;;;;;;;13.57;5.38;;;13.30;99.90;;;;;;6307298;22;20380;-76
2024/04/05 05:41:06;;;;;;;10.10;4.97;;;13.30;99.90;;;;;;6306705;22;19999;-77
2024/04/05 05:43:32;;;;;;;10.23;4.50;;;13.30;99.90;;;;;;6307037;22;19999;-71
2024/04/05 05:45:59;;;;;;;7.97;3.92;;;13.30;99.90;;;;;;6307400;22;20010;-72
2024/04/05 05:48:25;;;;;;;11.73;3.72;;;13.40;99.90;;;;;;6307581;22;20003;-71
2024/04/05 05:50:50;;;;;;;6.43;3.42;;;13.40;99.90;;;;;;6308327;22;20550;-70
2024/04/05 05:53:17;;;;;;;9.57;3.95;;;13.40;99.90;;;;;;6307980;22;20001;-70
2024/04/05 05:55:48;;;;;;;8.73;2.95;;;13.40;99.90;;;;;;6307789;22;20031;-70
2024/04/05 05:58:14;;;;;;;11.15;3.53;;;13.50;99.90;;;;;;6306940;22;20081;-70
2024/04/05 06:05:20;;;;;;;9.15;3.28;;;13.50;99.90;;;;;;6181046;23;20016;-70
2024/04/05 06:08:01;;;;;;;8.18;3.03;;;13.60;99.90;;;;;;6051310;23;20414;-72
2024/04/05 06:11:36;;;;;;;9.63;3.65;;;13.60;99.90;;;;;;6093606;23;20460;-71
2024/04/05 06:19:09;;;;;;;11.63;3.22;;;13.60;99.90;;;;;;5951174;24;20029;-70
2024/04/05 06:24:53;;;;;;;13.90;3.33;;;13.70;99.90;;;;;;5904687;24;20009;-70
2024/04/05 06:27:20;;;;;;;8.13;3.22;;;13.80;99.90;;;;;;5968731;24;20016;-69
2024/04/05 06:29:50;;;;;;;13.70;3.38;;;13.80;99.90;;;;;;6242167;22;20077;-72
2024/04/05 06:32:17;;;;;;;9.65;2.80;;;13.80;99.90;;;;;;6304683;22;20322;-71
2024/04/05 06:34:44;;;;;;;12.77;3.08;;;13.80;99.90;;;;;;6306608;22;20329;-72
2024/04/05 06:37:11;;;;;;;9.52;3.33;;;13.80;99.90;;;;;;6306953;22;20045;-70
2024/04/05 06:39:37;;;;;;;8.40;3.22;;;13.80;99.90;;;;;;6307230;22;20003;-70
2024/04/05 06:42:04;;;;;;;8.73;3.40;;;13.90;99.90;;;;;;6306289;22;20423;-70
2024/04/05 06:44:35;;;;;;;12.65;3.38;;;13.90;99.90;;;;;;6304263;22;20337;-70
2024/04/05 06:47:05;;;;;;;11.77;3.50;;;13.90;99.90;;;;;;6305891;22;20014;-71
2024/04/05 06:49:34;;;;;;;14.50;3.90;;;14.00;99.90;;;;;;6305627;22;20010;-69
2024/04/05 06:52:05;;;;;;;8.93;3.50;;;14.00;99.90;;;;;;6305942;22;20011;-71
2024/04/05 06:54:42;;;;;;;14.00;3.40;;;14.00;99.90;;;;;;6304000;22;20056;-71
2024/04/05 06:57:09;;;;;;;8.90;3.25;;;14.10;99.90;;;;;;6305617;22;20015;-71
2024/04/05 06:59:35;;;;;;;17.45;3.53;;;14.10;99.90;;;;;;6305930;22;20433;-71
2024/04/05 07:02:01;;;;;;;11.82;3.85;;;14.10;99.90;;;;;;6306378;22;20417;-70
2024/04/05 07:04:27;;;;;;;12.95;3.85;;;14.10;99.90;;;;;;6304240;22;20031;-71
2024/04/05 07:06:53;;;;;;;14.55;3.42;;;14.20;99.90;;;;;;6298484;22;20007;-71
2024/04/05 07:09:31;;;;;;;12.73;3.72;;;14.10;99.90;;;;;;6299216;22;19999;-70
2024/04/05 07:12:02;;;;;;;12.57;3.25;;;14.20;99.90;;;;;;6303662;22;20333;-71
2024/04/05 07:14:29;;;;;;;13.48;3.28;;;14.30;99.90;;;;;;6276268;22;20003;-71
2024/04/05 07:16:55;;;;;;;11.85;3.72;;;14.30;99.90;;;;;;6303369;22;20030;-72
2024/04/05 07:19:21;;;;;;;12.93;3.08;;;14.40;99.90;;;;;;6305857;22;20003;-71
2024/04/05 07:21:47;;;;;;;13.13;3.58;;;14.40;99.90;;;;;;6306066;22;20076;-71
2024/04/05 07:24:14;;;;;;;11.02;3.13;;;14.50;99.90;;;;;;6306375;22;20010;-70
2024/04/05 07:26:40;;;;;;;15.60;3.30;;;14.50;99.90;;;;;;6306335;22;21089;-71
2024/04/05 07:29:06;;;;;;;12.15;2.80;;;14.50;99.90;;;;;;6306830;22;20062;-71
2024/04/05 07:31:36;;;;;;;10.25;2.70;;;14.60;99.90;;;;;;6305964;22;19999;-71
2024/04/05 07:34:02;;;;;;;5.88;2.30;;;14.60;99.90;;;;;;6308378;22;20007;-71
2024/04/05 07:36:52;;;;;;;11.15;2.50;;;14.70;99.90;;;;;;6308829;22;20011;-71
2024/04/05 07:39:44;;;;;;;7.72;2.55;;;14.70;99.90;;;;;;6294664;22;20341;-71
2024/04/05 07:42:23;;;;;;;12.07;2.53;;;14.70;99.90;;;;;;6296949;22;20050;-70
2024/04/05 07:44:55;;;;;;;8.30;1.98;;;14.80;99.90;;;;;;6308130;22;20003;-71
2024/04/05 07:47:24;;;;;;;9.80;2.63;;;14.80;99.90;;;;;;6308390;22;20007;-70
2024/04/05 07:49:53;;;;;;;7.72;2.03;;;14.80;99.90;;;;;;6308112;22;20003;-71
2024/04/05 07:52:26;;;;;;;10.93;2.40;;;14.80;99.90;;;;;;6307997;22;20009;-71
2024/04/05 07:54:52;;;;;;;8.73;1.73;;;14.90;99.90;;;;;;6307732;22;20003;-71
2024/04/05 08:00:58;;;;;;;9.40;1.92;;;;;;;;;;6178747;23;20427;-71
2024/04/05 08:03:26;;;;;;;7.35;1.90;;;15.00;99.90;;;;;;6181811;23;20009;-71
2024/04/05 08:05:55;;;;;;;11.23;2.80;;;15.00;99.90;;;;;;6262522;22;20012;-70
2024/04/05 08:08:21;;;;;;;6.43;1.77;;;15.10;99.90;;;;;;6306957;22;20307;-71
2024/04/05 08:10:47;;;;;;;9.45;2.30;;;15.10;99.90;;;;;;6306867;22;20002;-72
2024/04/05 08:13:13;;;;;;;7.93;2.20;;;15.20;99.90;;;;;;6308010;22;20003;-71
2024/04/05 08:15:40;;;;;;;11.10;1.98;;;15.10;99.90;;;;;;6308380;22;20000;-71
2024/04/05 08:18:06;;;;;;;11.02;2.13;;;15.20;99.90;;;;;;6308398;22;20086;-71
2024/04/05 08:20:31;;;;;;;9.88;2.17;;;15.20;99.90;;;;;;6308451;22;20499;-71
2024/04/05 08:22:57;;;;;;;7.93;2.30;;;15.20;99.90;;;;;;6308325;22;19995;-71
2024/04/05 08:25:23;;;;;;;11.60;2.53;;;15.30;99.90;;;;;;6308126;22;19995;-71
2024/04/05 08:27:48;;;;;;;8.98;2.30;;;15.30;99.90;;;;;;6308430;22;20057;-71
2024/04/05 08:30:18;;;;;;;11.77;2.25;;;15.40;99.90;;;;;;6308503;22;20386;-71
2024/04/05 08:32:44;;;;;;;10.15;2.28;;;15.50;99.90;;;;;;6307988;22;20074;-71
2024/04/05 08:35:10;;;;;;;6.60;1.75;;;15.40;99.90;;;;;;6308165;22;20306;-72
2024/04/05 08:37:39;;;;;;;9.20;2.10;;;15.50;99.90;;;;;;6308064;22;20015;-71
2024/04/05 08:40:09;;;;;;;8.77;1.75;;;15.60;99.90;;;;;;6308218;22;20009;-72
2024/04/05 08:42:37;;;;;;;7.60;2.20;;;15.70;99.90;;;;;;6307999;22;20002;-79
2024/04/05 08:45:04;;;;;;;11.82;2.22;;;15.70;99.90;;;;;;6307548;22;20000;-77
2024/04/05 08:47:33;;;;;;;9.23;2.33;;;15.70;99.90;;;;;;6307732;22;20048;-78
2024/04/05 08:50:02;;;;;;;11.95;2.90;;;15.80;99.90;;;;;;6307680;22;20006;-78
2024/04/05 08:52:29;;;;;;;8.73;2.05;;;15.80;99.90;;;;;;6307689;22;20010;-78
2024/04/05 08:54:56;;;;;;;9.52;2.00;;;15.90;99.90;;;;;;6307702;22;20094;-78
2024/04/05 08:57:29;;;;;;;9.95;2.28;;;15.90;99.90;;;;;;6307425;22;20043;-78
2024/04/05 08:59:55;;;;;;;8.82;2.60;;;16.00;99.90;;;;;;6307888;22;20003;-78
2024/04/05 09:02:24;;;;;;;8.10;2.00;;;16.00;99.90;;;;;;6308400;22;20038;-71
2024/04/05 09:04:51;;;;;;;18.35;2.30;;;16.10;99.90;;;;;;6308784;22;20072;-71
2024/04/05 09:07:17;;;;;;;12.32;2.67;;;16.10;99.90;;;;;;6308374;22;20060;-72
2024/04/05 09:09:47;;;;;;;7.65;2.10;;;16.10;99.90;;;;;;6308569;22;20294;-71
2024/04/05 09:12:22;;;;;;;13.32;2.17;;;16.10;99.90;;;;;;6308605;22;20340;-71
2024/04/05 09:25:58;;;;;;;9.98;1.90;;;16.40;99.90;;;;;;6092995;23;20045;-71
2024/04/05 09:35:47;;;;;;;8.07;1.73;;;16.40;99.90;;;;;;6271084;22;20369;-71
2024/04/05 09:38:25;;;;;;;8.85;1.90;;;16.50;99.90;;;;;;6304822;22;20018;-72
2024/04/05 09:40:52;;;;;;;12.13;2.60;;;16.60;99.90;;;;;;6305656;22;20000;-72
2024/04/05 09:43:20;;;;;;;10.68;2.83;;;16.60;99.90;;;;;;6305190;22;20117;-71
2024/04/05 09:45:49;;;;;;;8.27;2.00;;;16.70;99.90;;;;;;6305290;22;20306;-71
2024/04/05 09:48:16;;;;;;;11.23;2.40;;;16.70;99.90;;;;;;6305605;22;20031;-71
2024/04/05 09:50:42;;;;;;;8.30;2.00;;;16.80;99.90;;;;;;6305234;22;20068;-72
2024/04/05 09:53:08;;;;;;;6.60;1.98;;;16.90;99.90;;;;;;6304826;22;19999;-71
2024/04/05 09:55:39;;;;;;;9.80;2.03;;;16.90;99.90;;;;;;6305655;22;20070;-71
2024/04/05 09:58:06;;;;;;;10.88;2.40;;;16.90;99.90;;;;;;6307075;22;20107;-72
2024/04/05 10:00:33;;;;;;;9.73;2.25;;;17.00;99.90;;;;;;6306760;22;20056;-71
2024/04/05 10:03:00;;;;;;;9.73;2.15;;;17.00;99.90;;;;;;6305151;22;20439;-71
2024/04/05 10:05:30;;;;;;;9.77;2.38;;;17.00;99.90;;;;;;6307395;22;20329;-72
2024/04/05 10:08:17;;;;;;;12.70;2.55;;;17.10;99.90;;;;;;6307094;22;20434;-72
2024/04/05 10:10:44;;;;;;;10.85;2.55;;;17.10;99.90;;;;;;6306419;22;19995;-72
2024/04/05 10:13:25;;;;;;;10.70;2.13;;;17.20;99.90;;;;;;6306447;22;20333;-72
2024/04/05 10:16:00;;;;;;;7.65;2.30;;;17.20;99.90;;;;;;6306527;22;20011;-72
2024/04/05 10:18:27;;;;;;;12.85;2.63;;;17.30;99.90;;;;;;6306752;22;20076;-72
2024/04/05 10:21:04;;;;;;;8.98;2.65;;;17.30;99.90;;;;;;6306673;22;20495;-72
2024/04/05 10:23:32;;;;;;;9.05;2.50;;;17.40;99.90;;;;;;6306271;22;20046;-71
2024/04/05 10:25:57;;;;;;;9.02;2.13;;;17.40;99.90;;;;;;6306450;22;20003;-71
2024/04/05 10:28:23;;;;;;;10.40;2.80;;;17.50;99.90;;;;;;6307003;22;19999;-72
2024/04/05 10:30:50;;;;;;;8.05;2.65;;;17.50;99.90;;;;;;6306604;22;20006;-71
2024/04/05 10:33:20;;;;;;;18.90;2.88;;;17.50;99.90;;;;;;6306262;22;20141;-72
2024/04/05 10:35:46;;;;;;;9.55;2.20;;;17.50;99.90;;;;;;6304972;22;20400;-69
2024/04/05 10:38:12;;;;;;;8.90;2.35;;;17.50;99.90;;;;;;6306003;22;20007;-70
2024/04/05 10:40:38;;;;;;;11.50;2.17;;;17.50;99.90;;;;;;6306358;22;20173;-71
2024/04/05 10:43:12;;;;;;;11.80;2.33;;;17.50;99.90;;;;;;6306246;22;20030;-71
2024/04/05 10:45:41;;;;;;;13.27;2.10;;;17.40;99.90;;;;;;6306868;22;20045;-71
2024/04/05 10:48:09;;;;;;;9.50;2.72;;;17.50;99.90;;;;;;6307046;22;20082;-70
2024/04/05 10:50:42;;;;;;;11.18;2.63;;;17.40;99.90;;;;;;6307209;22;20026;-70
2024/04/05 10:54:19;;;;;;;10.07;2.30;;;17.40;99.90;;;;;;6306863;22;20000;-71
2024/04/05 11:10:46;;;;;;;10.65;2.25;;;17.40;99.90;;;;;;6154322;23;20145;-70
2024/04/05 11:16:25;;;;;;;14.77;2.85;;;17.40;99.90;;;;;;6209547;23;20032;-72
2024/04/05 11:18:51;;;;;;;9.77;2.28;;;17.40;99.90;;;;;;6211377;23;20447;-72
2024/04/05 11:21:18;;;;;;;9.27;2.28;;;17.50;99.90;;;;;;6228974;22;20018;-72
2024/04/05 11:23:53;;;;;;;10.82;1.95;;;17.50;99.90;;;;;;6309380;22;20007;-72
2024/04/05 11:26:30;;;;;;;8.77;2.60;;;17.50;99.90;;;;;;6307158;22;20007;-72
2024/04/05 11:28:59;;;;;;;6.63;2.20;;;17.50;99.90;;;;;;6308897;22;20026;-72
2024/04/05 11:31:26;;;;;;;10.40;2.55;;;17.50;99.90;;;;;;6308657;22;20326;-73
2024/04/05 11:33:59;;;;;;;13.13;2.20;;;17.60;99.90;;;;;;6308304;22;20002;-72
2024/04/05 11:36:25;;;;;;;10.13;3.63;;;17.60;99.90;;;;;;6296467;22;19999;-72
2024/04/05 11:38:52;;;;;;;6.93;1.95;;;17.60;99.90;;;;;;6305214;22;20011;-72
2024/04/05 11:41:18;;;;;;;9.95;2.33;;;17.70;99.90;;;;;;6303982;22;20007;-71
2024/04/05 11:43:44;;;;;;;7.13;2.20;;;17.80;99.90;;;;;;6303304;22;20007;-71
2024/04/05 11:46:11;;;;;;;8.75;1.98;;;17.80;99.90;;;;;;6306388;22;20425;-72
2024/04/05 11:48:37;;;;;;;9.35;2.42;;;17.80;99.90;;;;;;6307961;22;20469;-71
2024/04/05 11:51:03;;;;;;;12.38;2.55;;;17.90;99.90;;;;;;6307978;22;20325;-73
2024/04/05 11:53:30;;;;;;;10.98;2.33;;;17.90;99.90;;;;;;6281174;22;20027;-72
2024/04/05 11:55:56;;;;;;;12.50;2.75;;;17.90;99.90;;;;;;6308064;22;19999;-77
2024/04/05 11:58:23;;;;;;;6.82;2.40;;;18.00;99.90;;;;;;6307137;22;20033;-78
2024/04/05 12:00:50;;;;;;;9.68;2.10;;;18.00;99.90;;;;;;6307702;22;20003;-78
2024/04/05 12:03:19;;;;;;;10.32;2.72;;;18.00;99.90;;;;;;6307814;22;20542;-78
2024/04/05 12:05:45;;;;;;;11.85;3.00;;;18.00;99.90;;;;;;6307701;22;19996;-77
2024/04/05 12:08:12;;;;;;;14.15;3.20;;;18.10;99.90;;;;;;6307565;22;20056;-76
2024/04/05 12:10:38;;;;;;;8.88;2.70;;;18.10;99.90;;;;;;6307373;22;20000;-77
2024/04/05 12:13:05;;;;;;;11.82;1.90;;;18.10;99.90;;;;;;6307911;22;20025;-78
2024/04/05 12:15:31;;;;;;;10.82;2.25;;;18.10;99.90;;;;;;6307940;22;19995;-72
2024/04/05 12:17:58;;;;;;;10.98;2.20;;;18.10;99.90;;;;;;6307344;22;20368;-72
2024/04/05 12:20:23;;;;;;;13.23;2.75;;;18.10;99.90;;;;;;6308642;22;19995;-72
2024/04/05 12:22:49;;;;;;;11.18;2.47;;;18.10;99.90;;;;;;6308536;22;20048;-72
2024/04/05 12:25:16;;;;;;;13.75;2.50;;;;;;;;;;6308583;22;19995;-72
2024/04/05 12:42:01;;;;;;;9.57;2.78;;;18.20;99.90;;;;;;6242970;23;20019;-72
2024/04/05 12:52:32;;;;;;;11.27;2.47;;;18.20;99.90;;;;;;6141683;23;20527;-72
2024/04/05 12:55:46;;;;;;;10.88;2.42;;;18.30;99.90;;;;;;6252742;22;20027;-70
2024/04/05 12:58:11;;;;;;;9.07;2.00;;;18.40;99.90;;;;;;6275692;22;20090;-71
2024/04/05 13:04:13;;;;;;;8.45;2.20;;;18.60;99.90;;;;;;6183040;23;20351;-70
2024/04/05 13:06:40;;;;;;;14.20;2.30;;;18.70;99.90;;;;;;6203690;22;20004;-70
2024/04/05 13:09:13;;;;;;;12.38;2.85;;;18.70;99.90;;;;;;6249199;22;20520;-69
2024/04/05 13:11:40;;;;;;;9.48;2.92;;;18.80;99.90;;;;;;6276154;22;20000;-72
2024/04/05 13:14:09;;;;;;;15.90;2.03;;;18.90;99.90;;;;;;6249032;22;20329;-72
2024/04/05 13:16:36;;;;;;;14.13;2.67;;;18.90;99.90;;;;;;6276013;22;20008;-70
2024/04/05 13:19:02;;;;;;;7.50;2.33;;;18.90;99.90;;;;;;6275893;22;20073;-71
2024/04/05 13:21:29;;;;;;;10.13;3.35;;;18.90;99.90;;;;;;6276396;22;20018;-72
2024/04/05 13:23:55;;;;;;;6.93;2.00;;;18.80;99.90;;;;;;6276297;22;20326;-69
2024/04/05 13:26:22;;;;;;;10.40;2.67;;;18.80;99.90;;;;;;6276463;22;20007;-69
2024/04/05 13:28:50;;;;;;;11.75;2.42;;;18.80;99.90;;;;;;6276336;22;20499;-71
2024/04/05 13:31:16;;;;;;;10.15;2.58;;;18.80;99.90;;;;;;6276211;22;20010;-70
2024/04/05 13:33:44;;;;;;;13.68;2.60;;;18.80;99.90;;;;;;6275980;22;19996;-71
2024/04/05 13:36:11;;;;;;;10.60;2.38;;;18.80;99.90;;;;;;6276803;22;20491;-71
2024/04/05 13:38:37;;;;;;;8.02;2.40;;;18.80;99.90;;;;;;6276481;22;20069;-69
2024/04/05 13:41:04;;;;;;;16.20;3.15;;;18.80;99.90;;;;;;6276504;22;20067;-72
2024/04/05 13:43:30;;;;;;;11.32;2.70;;;18.80;99.90;;;;;;6276595;22;20004;-78
2024/04/05 13:46:14;;;;;;;15.50;3.38;;;18.80;99.90;;;;;;6276189;22;20083;-75
2024/04/05 13:48:47;;;;;;;11.70;2.50;;;18.80;99.90;;;;;;6276408;22;20007;-76
2024/04/05 13:51:13;;;;;;;10.80;2.35;;;18.80;99.90;;;;;;6276141;22;20007;-79
2024/04/05 13:53:39;;;;;;;9.07;2.20;;;18.80;99.90;;;;;;6275124;22;20385;-76
2024/04/05 13:56:06;;;;;;;12.90;2.63;;;18.80;99.90;;;;;;6276067;22;20453;-81
2024/04/05 13:58:34;;;;;;;8.70;2.58;;;18.90;99.90;;;;;;6275866;22;20016;-78
2024/04/05 14:01:08;;;;;;;9.52;2.30;;;18.90;99.90;;;;;;6275895;22;20020;-77
2024/04/05 14:03:35;;;;;;;9.68;2.42;;;18.90;99.90;;;;;;6275481;22;20082;-71
2024/04/05 14:06:01;;;;;;;8.57;2.38;;;18.90;99.90;;;;;;6276153;22;20329;-71
2024/04/05 14:08:30;;;;;;;9.25;2.35;;;19.00;99.90;;;;;;6276140;22;20076;-70
2024/04/05 14:10:59;;;;;;;9.25;2.10;;;19.00;99.90;;;;;;6275745;22;20000;-69
2024/04/05 14:13:29;;;;;;;8.98;2.50;;;19.00;99.90;;;;;;6275709;22;19996;-71
2024/04/05 14:23:57;;;;;;;;;;;;;;;;;;;;;
2024/04/05 14:34:05;;;;;;;9.85;2.50;;;19.00;99.90;;;;;;6062161;23;20066;-71
2024/04/05 14:40:13;;;;;;;9.18;2.30;;;19.00;99.70;;;;;;5960693;23;20024;-71
2024/04/05 14:42:39;;;;;;;7.95;2.13;;;19.00;99.40;;;;;;6080198;23;20428;-71
2024/04/05 14:45:05;;;;;;;12.98;3.05;;;18.90;99.40;;;;;;6270797;22;20306;-71
2024/04/05 14:47:31;;;;;;;13.15;3.15;;;18.90;99.30;;;;;;6275803;22;20010;-71
2024/04/05 14:49:58;;;;;;;12.85;2.10;;;18.90;99.40;;;;;;6276757;22;20082;-71
2024/04/05 14:52:24;;;;;;;9.65;2.40;;;18.90;99.40;;;;;;6276339;22;20329;-68
2024/04/05 14:54:50;;;;;;;8.77;2.25;;;18.90;99.40;;;;;;6275451;22;20071;-72
2024/04/05 14:57:16;;;;;;;8.30;2.05;;;18.90;99.20;;;;;;6275254;22;20019;-71
2024/04/05 14:59:42;;;;;;;10.88;2.50;;;18.90;99.10;;;;;;6273864;22;20000;-71
2024/04/05 15:02:08;;;;;;;6.07;1.98;;;19.00;99.20;;;;;;6275726;22;20003;-71
2024/04/05 15:04:34;;;;;;;10.50;2.00;;;19.00;99.20;;;;;;6276107;22;20006;-71
2024/04/05 15:07:04;;;;;;;7.63;2.03;;;19.00;98.80;;;;;;6275799;22;20007;-71
2024/04/05 15:09:30;;;;;;;8.82;1.95;;;19.00;98.50;;;;;;6275965;22;20430;-71
2024/04/05 15:11:56;;;;;;;7.85;2.20;;;19.00;98.10;;;;;;6276331;22;20337;-72
2024/04/05 15:14:25;;;;;;;9.52;1.70;;;19.00;98.20;;;;;;6275939;22;20425;-71
2024/04/05 15:16:51;;;;;;;11.70;2.30;;;19.00;98.20;;;;;;6275937;22;20050;-71
2024/04/05 15:19:17;;;;;;;9.75;1.80;;;19.00;98.40;;;;;;6276583;22;20019;-69
2024/04/05 15:21:43;;;;;;;7.25;1.63;;;19.00;98.20;;;;;;6276552;22;20318;-69